createdAt,value
2018-09-13T00:01:34.396Z,4.10
2018-09-13T00:04:03.176Z,3.93
2018-09-13T00:06:31.980Z,4.20
2018-09-13T00:09:00.859Z,4.40
2018-09-13T00:11:29.641Z,3.70
2018-09-13T00:13:58.452Z,3.80
2018-09-13T00:16:27.215Z,3.83
2018-09-13T00:18:56.014Z,4.30
2018-09-13T00:21:24.788Z,3.80
2018-09-13T00:23:53.570Z,4.07
2018-09-13T00:26:22.344Z,3.77
2018-09-13T00:28:51.130Z,3.90
2018-09-13T00:31:19.907Z,3.60
2018-09-13T00:33:48.716Z,4.13
2018-09-13T00:36:17.491Z,3.90
2018-09-13T00:38:46.276Z,3.67
2018-09-13T00:41:15.117Z,4.43
2018-09-13T00:43:43.958Z,4.00
2018-09-13T00:46:12.759Z,4.03
2018-09-13T00:48:41.557Z,4.70
2018-09-13T00:51:10.552Z,4.63
2018-09-13T00:53:39.334Z,4.50
2018-09-13T00:56:08.135Z,4.83
2018-09-13T00:58:36.953Z,4.40
2018-09-13T01:01:05.745Z,5.10
2018-09-13T01:03:34.527Z,5.40
2018-09-13T01:06:03.313Z,5.67
2018-09-13T01:08:32.090Z,5.30
2018-09-13T01:11:00.908Z,5.07
2018-09-13T01:13:29.712Z,5.33
2018-09-13T01:15:58.470Z,6.23
2018-09-13T01:18:27.280Z,4.90
2018-09-13T01:20:56.102Z,5.10
2018-09-13T01:23:24.871Z,4.80
2018-09-13T01:25:53.664Z,5.53
2018-09-13T01:28:22.448Z,4.97
2018-09-13T01:30:51.278Z,5.10
2018-09-13T01:33:20.057Z,4.57
2018-09-13T01:35:48.893Z,5.43
2018-09-13T01:38:17.688Z,5.43
2018-09-13T01:40:46.467Z,4.93
2018-09-13T01:43:15.232Z,5.00
2018-09-13T01:45:44.052Z,5.10
2018-09-13T01:48:12.863Z,4.87
2018-09-13T01:50:41.655Z,4.63
2018-09-13T01:53:10.488Z,4.43
2018-09-13T01:55:39.279Z,4.67
2018-09-13T01:58:08.132Z,5.40
2018-09-13T02:00:37.093Z,3.87
2018-09-13T02:03:05.915Z,5.47
2018-09-13T02:05:34.740Z,4.50
2018-09-13T02:08:03.564Z,4.60
2018-09-13T02:10:32.375Z,4.67
2018-09-13T02:13:01.174Z,4.27
2018-09-13T02:15:29.990Z,4.40
2018-09-13T02:17:58.782Z,4.20
2018-09-13T02:20:27.577Z,4.20
2018-09-13T02:22:56.378Z,3.87
2018-09-13T02:25:25.151Z,4.57
2018-09-13T02:27:53.963Z,4.77
2018-09-13T02:30:22.736Z,4.50
2018-09-13T02:32:51.519Z,4.10
2018-09-13T02:35:20.346Z,4.53
2018-09-13T02:37:49.110Z,4.30
2018-09-13T02:40:17.925Z,5.00
2018-09-13T02:42:46.722Z,4.30
2018-09-13T02:45:15.498Z,5.57
2018-09-13T02:47:44.297Z,4.83
2018-09-13T02:50:13.107Z,4.40
2018-09-13T02:52:41.871Z,5.23
2018-09-13T02:55:10.722Z,5.03
2018-09-13T02:57:39.499Z,5.50
2018-09-13T03:00:09.010Z,5.43
2018-09-13T03:02:37.922Z,5.90
2018-09-13T03:05:06.807Z,6.27
2018-09-13T03:07:35.567Z,5.60
2018-09-13T03:10:04.395Z,6.33
2018-09-13T03:12:33.183Z,5.57
2018-09-13T03:15:02.024Z,5.97
2018-09-13T03:17:30.824Z,5.43
2018-09-13T03:19:59.642Z,5.13
2018-09-13T03:22:28.414Z,6.50
2018-09-13T03:24:57.200Z,6.70
2018-09-13T03:27:26.083Z,6.57
2018-09-13T03:29:54.899Z,6.30
2018-09-13T03:32:23.698Z,6.13
2018-09-13T03:34:52.516Z,6.20
2018-09-13T03:37:21.401Z,6.73
2018-09-13T03:39:50.193Z,6.30
2018-09-13T03:42:18.984Z,5.53
2018-09-13T03:44:47.772Z,5.63
2018-09-13T03:47:16.603Z,6.17
2018-09-13T03:49:45.373Z,5.40
2018-09-13T03:52:14.139Z,5.00
2018-09-13T03:54:42.898Z,5.03
2018-09-13T03:57:11.670Z,5.20
2018-09-13T03:59:40.484Z,5.10
2018-09-13T04:02:09.297Z,6.53
2018-09-13T04:04:38.063Z,6.00
2018-09-13T04:07:06.872Z,6.60
2018-09-13T04:09:35.669Z,5.37
2018-09-13T04:12:04.468Z,6.23
2018-09-13T04:14:33.303Z,6.17
2018-09-13T04:17:02.099Z,5.73
2018-09-13T04:19:46.865Z,6.30
2018-09-13T04:22:16.458Z,5.97
2018-09-13T04:24:45.471Z,5.33
2018-09-13T04:27:14.568Z,5.97
2018-09-13T04:29:43.797Z,6.30
2018-09-13T04:32:12.575Z,5.60
2018-09-13T04:34:41.351Z,5.93
2018-09-13T04:37:10.233Z,5.67
2018-09-13T04:39:38.991Z,5.87
2018-09-13T04:42:07.803Z,5.83
2018-09-13T04:44:36.603Z,5.23
2018-09-13T04:47:05.403Z,6.20
2018-09-13T04:49:34.182Z,6.03
2018-09-13T04:52:03.283Z,5.50
2018-09-13T04:54:32.050Z,6.47
2018-09-13T04:57:00.919Z,5.50
2018-09-13T04:59:29.731Z,4.70
2018-09-13T05:01:58.516Z,5.53
2018-09-13T05:04:27.339Z,5.03
2018-09-13T05:06:56.103Z,5.00
2018-09-13T05:09:24.913Z,5.27
2018-09-13T05:11:53.740Z,5.20
2018-09-13T05:14:22.522Z,5.70
2018-09-13T05:16:51.675Z,5.27
2018-09-13T05:19:20.556Z,5.53
2018-09-13T05:21:49.347Z,5.33
2018-09-13T05:24:18.123Z,5.47
2018-09-13T05:26:46.893Z,6.23
2018-09-13T05:29:15.692Z,6.13
2018-09-13T05:31:44.544Z,5.93
2018-09-13T05:34:13.306Z,5.97
2018-09-13T05:36:42.139Z,5.23
2018-09-13T05:39:12.296Z,5.37
2018-09-13T05:41:41.764Z,4.90
2018-09-13T05:44:10.695Z,5.47
2018-09-13T05:46:39.794Z,4.97
2018-09-13T05:49:09.020Z,4.77
2018-09-13T05:51:37.811Z,4.53
2018-09-13T05:54:06.616Z,5.10
2018-09-13T05:56:35.383Z,5.07
2018-09-13T05:59:04.274Z,5.07
2018-09-13T06:01:33.106Z,4.73
2018-09-13T06:04:01.916Z,4.67
2018-09-13T06:06:30.775Z,4.33
2018-09-13T06:08:59.595Z,4.10
2018-09-13T06:11:28.406Z,3.93
2018-09-13T06:13:57.251Z,3.70
2018-09-13T06:16:26.111Z,3.67
2018-09-13T06:18:55.251Z,5.50
2018-09-13T06:21:24.128Z,3.93
2018-09-13T06:23:52.923Z,3.90
2018-09-13T06:26:21.711Z,4.00
2018-09-13T06:28:50.491Z,3.60
2018-09-13T06:31:19.262Z,3.63
2018-09-13T06:33:48.081Z,3.20
2018-09-13T06:36:16.995Z,3.23
2018-09-13T06:38:45.765Z,3.27
2018-09-13T06:41:15.187Z,3.00
2018-09-13T06:43:44.015Z,3.03
2018-09-13T06:46:12.775Z,2.60
2018-09-13T06:48:41.622Z,3.00
2018-09-13T06:51:10.418Z,2.60
2018-09-13T06:53:39.215Z,2.73
2018-09-13T06:56:08.037Z,3.00
2018-09-13T06:58:36.856Z,2.27
2018-09-13T07:01:05.887Z,2.63
2018-09-13T07:03:34.649Z,2.70
2018-09-13T07:08:38.504Z,2.97
2018-09-13T07:11:07.351Z,3.07
2018-09-13T07:13:36.145Z,2.40
2018-09-13T07:16:05.017Z,2.00
2018-09-13T07:18:33.834Z,2.53
2018-09-13T07:21:02.624Z,2.40
2018-09-13T07:23:31.439Z,2.07
2018-09-13T07:26:00.256Z,2.40
2018-09-13T07:28:29.152Z,2.63
2018-09-13T07:30:58.225Z,2.03
2018-09-13T07:33:27.012Z,2.50
2018-09-13T07:35:55.831Z,2.13
2018-09-13T07:38:24.612Z,2.63
2018-09-13T07:40:53.608Z,2.33
2018-09-13T07:43:22.435Z,2.53
2018-09-13T07:45:51.195Z,2.87
2018-09-13T07:48:20.016Z,2.13
2018-09-13T07:50:48.803Z,2.10
2018-09-13T07:53:17.647Z,2.03
2018-09-13T07:55:46.498Z,1.93
2018-09-13T07:58:21.787Z,2.33
2018-09-13T08:00:50.939Z,2.17
2018-09-13T08:03:19.853Z,2.27
2018-09-13T08:05:48.760Z,2.20
2018-09-13T08:08:17.558Z,2.30
2018-09-13T08:10:46.326Z,2.00
2018-09-13T08:13:15.117Z,2.53
2018-09-13T08:15:43.944Z,2.40
2018-09-13T08:18:12.715Z,2.43
2018-09-13T08:20:41.504Z,2.67
2018-09-13T08:23:10.295Z,2.60
2018-09-13T08:25:39.083Z,2.80
2018-09-13T08:28:08.010Z,2.60
2018-09-13T08:30:36.775Z,2.30
2018-09-13T08:33:05.568Z,2.50
2018-09-13T08:35:34.327Z,2.50
2018-09-13T08:38:03.194Z,2.50
2018-09-13T08:40:32.072Z,2.97
2018-09-13T08:43:00.858Z,3.20
2018-09-13T08:45:29.641Z,2.87
2018-09-13T08:47:58.441Z,3.10
2018-09-13T08:50:27.220Z,2.97
2018-09-13T08:52:56.012Z,2.73
2018-09-13T08:55:24.808Z,2.80
2018-09-13T08:57:53.591Z,3.17
2018-09-13T09:00:22.415Z,3.23
2018-09-13T09:02:51.203Z,2.63
2018-09-13T09:05:20.055Z,2.77
2018-09-13T09:07:48.911Z,3.30
2018-09-13T09:10:17.739Z,2.63
2018-09-13T09:12:46.667Z,2.90
2018-09-13T09:15:15.483Z,3.03
2018-09-13T09:17:44.348Z,3.00
2018-09-13T09:20:13.347Z,2.70
2018-09-13T09:22:42.169Z,2.70
2018-09-13T09:25:10.931Z,2.73
2018-09-13T09:27:39.713Z,2.67
2018-09-13T09:30:08.563Z,3.33
2018-09-13T09:32:37.339Z,2.50
2018-09-13T09:35:06.232Z,2.70
2018-09-13T09:37:35.361Z,3.20
2018-09-13T09:40:03.861Z,2.50
2018-09-13T09:42:32.675Z,2.60
2018-09-13T09:45:01.463Z,2.50
2018-09-13T09:47:30.262Z,2.30
2018-09-13T09:49:59.061Z,2.47
2018-09-13T09:52:27.858Z,2.17
2018-09-13T09:54:58.198Z,2.63
2018-09-13T09:57:27.400Z,2.50
2018-09-13T09:59:57.223Z,2.50
2018-09-13T10:02:27.356Z,2.50
2018-09-13T10:05:01.995Z,1.70
2018-09-13T10:07:31.365Z,1.80
2018-09-13T10:10:00.716Z,1.50
2018-09-13T10:12:30.272Z,1.70
2018-09-13T10:15:04.924Z,1.53
2018-09-13T10:18:42.808Z,1.60
2018-09-13T10:21:17.237Z,2.10
2018-09-13T10:23:51.501Z,1.90
2018-09-13T10:26:26.035Z,1.23
2018-09-13T10:29:00.531Z,1.90
2018-09-13T10:33:40.522Z,1.40
2018-09-13T10:36:14.716Z,1.40
2018-09-13T10:38:49.054Z,1.20
2018-09-13T10:41:23.410Z,1.17
2018-09-13T10:43:57.788Z,1.43
2018-09-13T10:46:29.061Z,1.40
2018-09-13T10:49:03.676Z,2.00
2018-09-13T10:51:37.745Z,1.20
2018-09-13T10:55:10.795Z,1.00
2018-09-13T10:57:42.829Z,1.30
2018-09-13T11:00:12.563Z,1.50
2018-09-13T11:02:41.880Z,1.53
2018-09-13T11:05:10.789Z,1.50
2018-09-13T11:07:39.798Z,1.43
2018-09-13T11:10:09.076Z,1.63
2018-09-13T11:12:50.848Z,1.60
2018-09-13T11:15:23.967Z,1.37
2018-09-13T11:17:52.862Z,1.43
2018-09-13T11:20:22.165Z,1.60
2018-09-13T11:22:53.517Z,1.30
2018-09-13T11:25:23.224Z,1.43
2018-09-13T11:27:52.188Z,1.70
2018-09-13T11:30:21.043Z,2.07
2018-09-13T11:32:50.311Z,1.70
2018-09-13T11:35:19.882Z,1.90
2018-09-13T11:37:49.012Z,1.50
2018-09-13T11:40:18.394Z,1.93
2018-09-13T11:42:47.576Z,2.27
2018-09-13T11:45:17.237Z,2.20
2018-09-13T11:47:46.698Z,2.27
2018-09-13T11:50:15.641Z,2.13
2018-09-13T11:52:44.876Z,1.93
2018-09-13T11:55:14.250Z,2.07
2018-09-13T11:57:43.219Z,2.23
2018-09-13T12:00:12.072Z,1.40
2018-09-13T12:02:41.642Z,2.00
2018-09-13T12:05:10.576Z,2.70
2018-09-13T12:07:39.379Z,1.80
2018-09-13T12:10:08.610Z,1.40
2018-09-13T12:12:37.954Z,1.83
2018-09-13T12:15:08.904Z,1.90
2018-09-13T12:17:37.793Z,1.57
2018-09-13T12:20:07.841Z,1.62
2018-09-13T12:22:37.700Z,1.80
2018-09-13T12:25:07.028Z,1.50
2018-09-13T12:27:36.002Z,1.50
2018-09-13T12:30:05.183Z,1.60
2018-09-13T12:32:34.049Z,1.70
2018-09-13T12:35:02.849Z,1.70
2018-09-13T12:37:31.700Z,1.67
2018-09-13T12:40:00.524Z,2.00
2018-09-13T12:42:29.378Z,1.90
2018-09-13T12:44:58.241Z,2.10
2018-09-13T12:47:27.098Z,1.70
2018-09-13T12:49:56.491Z,1.97
2018-09-13T12:52:25.761Z,2.07
2018-09-13T12:54:55.101Z,2.30
2018-09-13T12:57:23.981Z,2.13
2018-09-13T12:59:52.846Z,2.00
2018-09-13T13:02:21.696Z,2.10
2018-09-13T13:04:50.492Z,1.67
2018-09-13T13:07:19.327Z,1.95
2018-09-13T13:09:48.892Z,2.10
2018-09-13T13:12:18.245Z,3.00
2018-09-13T13:14:47.484Z,2.72
2018-09-13T13:17:16.866Z,2.60
2018-09-13T13:19:46.192Z,2.02
2018-09-13T13:25:08.803Z,2.00
2018-09-13T13:27:37.690Z,2.87
2018-09-13T13:30:07.325Z,2.42
2018-09-13T13:32:36.237Z,2.35
2018-09-13T13:35:05.106Z,2.05
2018-09-13T13:37:34.360Z,2.40
2018-09-13T13:40:07.291Z,2.37
2018-09-13T13:42:36.589Z,2.10
2018-09-13T13:45:05.535Z,1.82
2018-09-13T13:47:34.486Z,1.92
2018-09-13T13:50:03.298Z,2.30
2018-09-13T13:52:32.149Z,2.40
2018-09-13T13:55:01.483Z,1.97
2018-09-13T13:57:30.815Z,2.03
2018-09-13T13:59:59.814Z,2.90
2018-09-13T14:02:29.034Z,2.20
2018-09-13T14:05:06.424Z,2.20
2018-09-13T14:07:35.721Z,2.30
2018-09-13T14:10:04.727Z,2.30
2018-09-13T14:12:33.913Z,2.27
2018-09-13T14:15:02.936Z,2.33
2018-09-13T14:17:31.744Z,2.20
2018-09-13T14:20:01.028Z,2.60
2018-09-13T14:28:23.334Z,2.77
2018-09-13T14:30:53.683Z,2.60
2018-09-13T14:33:22.982Z,2.13
2018-09-13T14:35:51.904Z,2.40
2018-09-13T14:38:21.062Z,2.77
2018-09-13T14:40:52.992Z,1.70
2018-09-13T14:43:22.297Z,2.50
2018-09-13T14:45:51.673Z,2.20
2018-09-13T14:48:20.960Z,1.80
2018-09-13T14:50:49.964Z,2.33
2018-09-13T14:53:19.258Z,2.33
2018-09-13T14:55:48.260Z,2.17
2018-09-13T14:58:17.496Z,2.10
2018-09-13T15:00:46.433Z,1.63
2018-09-13T15:03:15.246Z,2.10
2018-09-13T15:05:44.434Z,2.20
2018-09-13T15:08:13.313Z,2.10
2018-09-13T15:10:43.277Z,2.20
2018-09-13T15:13:12.303Z,1.93
2018-09-13T15:15:45.681Z,1.80
2018-09-13T15:18:14.560Z,2.13
2018-09-13T15:20:43.439Z,1.90
2018-09-13T15:23:12.241Z,1.57
2018-09-13T15:25:42.116Z,1.53
2018-09-13T15:28:10.996Z,2.03
2018-09-13T15:30:39.856Z,1.97
2018-09-13T15:33:08.671Z,2.77
2018-09-13T15:35:37.679Z,1.57
2018-09-13T15:38:07.007Z,1.90
2018-09-13T15:40:39.368Z,1.90
2018-09-13T15:43:09.714Z,1.83
2018-09-13T15:51:34.438Z,2.40
2018-09-13T15:54:06.057Z,1.90
2018-09-13T15:56:36.132Z,2.03
2018-09-13T15:59:05.180Z,1.73
2018-09-13T16:01:57.359Z,1.93
2018-09-13T16:07:42.169Z,1.73
2018-09-13T16:10:11.544Z,2.20
2018-09-13T16:12:40.601Z,1.73
2018-09-13T16:15:09.524Z,2.13
2018-09-13T16:17:38.343Z,1.77
2018-09-13T16:20:07.656Z,2.20
2018-09-13T16:22:36.600Z,2.20
2018-09-13T16:25:05.755Z,1.90
2018-09-13T16:27:35.120Z,1.63
2018-09-13T16:30:04.550Z,1.60
2018-09-13T16:32:33.455Z,1.70
2018-09-13T16:35:02.330Z,1.80
2018-09-13T16:37:36.482Z,1.47
2018-09-13T16:40:10.969Z,1.40
2018-09-13T16:43:16.621Z,2.10
2018-09-13T16:45:45.565Z,1.70
2018-09-13T16:48:14.419Z,1.80
2018-09-13T16:53:36.728Z,1.70
2018-09-13T16:56:05.596Z,1.63
2018-09-13T16:58:34.812Z,1.40
2018-09-13T17:01:04.204Z,1.23
2018-09-13T17:03:34.052Z,1.10
2018-09-13T17:06:03.234Z,1.50
2018-09-13T17:08:32.232Z,1.40
2018-09-13T17:11:01.115Z,1.20
2018-09-13T17:13:30.376Z,1.53
2018-09-13T17:15:59.432Z,1.40
2018-09-13T17:18:35.821Z,1.27
2018-09-13T17:21:04.751Z,1.10
2018-09-13T17:23:34.384Z,1.20
2018-09-13T17:26:03.276Z,1.47
2018-09-13T17:28:32.518Z,1.43
2018-09-13T17:31:02.576Z,1.20
2018-09-13T17:33:31.363Z,1.50
2018-09-13T17:36:00.211Z,1.30
2018-09-13T17:38:30.176Z,1.33
2018-09-13T17:40:59.054Z,1.30
2018-09-13T17:43:28.273Z,1.30
2018-09-13T17:45:57.608Z,1.67
2018-09-13T17:48:26.663Z,1.40
2018-09-13T17:50:55.922Z,1.57
2018-09-13T17:53:25.249Z,1.20
2018-09-13T17:55:54.186Z,1.30
2018-09-13T17:58:23.062Z,1.10
2018-09-13T18:00:51.861Z,1.50
2018-09-13T18:03:20.811Z,1.27
2018-09-13T18:05:49.711Z,1.10
2018-09-13T18:08:18.569Z,1.30
2018-09-13T18:10:47.355Z,1.30
2018-09-13T18:13:16.620Z,1.57
2018-09-13T18:15:46.477Z,1.27
2018-09-13T18:18:15.325Z,1.37
2018-09-13T18:20:44.157Z,1.03
2018-09-13T18:23:13.011Z,1.00
2018-09-13T18:25:42.088Z,1.00
2018-09-13T18:28:11.230Z,1.20
2018-09-13T18:30:40.263Z,1.40
2018-09-13T18:33:09.489Z,1.50
2018-09-13T18:35:38.787Z,1.50
2018-09-13T18:38:08.236Z,1.10
2018-09-13T18:40:44.641Z,1.60
2018-09-13T18:43:13.821Z,1.27
2018-09-13T18:45:43.042Z,1.13
2018-09-13T18:48:11.881Z,1.43
2018-09-13T18:50:41.051Z,1.23
2018-09-13T18:53:09.950Z,1.33
2018-09-13T18:55:38.869Z,1.80
2018-09-13T18:58:07.788Z,1.10
2018-09-13T19:00:36.575Z,1.07
2018-09-13T19:03:05.432Z,1.23
2018-09-13T19:05:34.705Z,1.20
2018-09-13T19:08:03.760Z,1.37
2018-09-13T19:10:32.898Z,1.20
2018-09-13T19:13:02.213Z,1.53
2018-09-13T19:15:31.213Z,1.37
2018-09-13T19:18:00.045Z,1.60
2018-09-13T19:20:29.216Z,1.43
2018-09-13T19:22:58.194Z,1.30
2018-09-13T19:25:27.129Z,1.67
2018-09-13T19:27:56.023Z,1.37
2018-09-13T19:30:25.309Z,1.20
2018-09-13T19:32:54.336Z,1.47
2018-09-13T19:35:23.108Z,1.20
2018-09-13T19:37:52.029Z,1.40
2018-09-13T19:40:20.842Z,1.50
2018-09-13T19:42:50.353Z,1.47
2018-09-13T19:48:10.080Z,1.53
2018-09-13T19:50:39.065Z,1.33
2018-09-13T19:53:08.883Z,1.47
2018-09-13T19:55:43.424Z,1.47
2018-09-13T19:58:15.640Z,1.60
2018-09-13T20:00:50.252Z,2.07
2018-09-13T20:03:21.258Z,1.70
2018-09-13T20:05:50.920Z,1.57
2018-09-13T20:08:20.040Z,1.60
2018-09-13T20:10:48.848Z,1.90
2018-09-13T20:13:17.742Z,1.50
2018-09-13T20:15:50.375Z,1.90
2018-09-13T20:18:24.683Z,1.53
2018-09-13T20:20:53.914Z,1.70
2018-09-13T20:23:39.427Z,1.80
2018-09-13T20:26:09.247Z,1.90
2018-09-13T20:28:38.250Z,1.30
2018-09-13T20:31:07.116Z,1.80
2018-09-13T20:33:39.016Z,1.93
2018-09-13T20:36:08.825Z,1.90
2018-09-13T20:38:37.795Z,1.83
2018-09-13T20:41:06.848Z,1.80
2018-09-13T20:43:36.230Z,1.77
2018-09-13T20:46:05.225Z,1.70
2018-09-13T20:48:34.099Z,2.00
2018-09-13T20:51:03.213Z,1.90
2018-09-13T20:53:39.787Z,2.03
2018-09-13T20:56:12.417Z,2.17
2018-09-13T20:58:41.418Z,2.53
2018-09-13T21:01:10.284Z,2.20
2018-09-13T21:03:43.605Z,2.10
2018-09-13T21:06:12.389Z,1.87
2018-09-13T21:08:41.272Z,2.10
2018-09-13T21:11:10.237Z,2.07
2018-09-13T21:13:39.375Z,1.93
2018-09-13T21:16:08.215Z,1.63
2018-09-13T21:18:37.413Z,1.53
2018-09-13T21:21:06.762Z,2.73
2018-09-13T21:23:36.612Z,1.50
2018-09-13T21:26:05.936Z,1.07
2018-09-13T21:28:34.832Z,1.10
2018-09-13T21:31:03.719Z,1.07
2018-09-13T21:33:33.401Z,1.30
2018-09-13T21:36:02.325Z,1.00
2018-09-13T21:38:31.724Z,1.07
2018-09-13T21:41:00.659Z,0.97
2018-09-13T21:43:29.447Z,0.77
2018-09-13T21:46:03.220Z,1.10
2018-09-13T21:48:32.504Z,0.93
2018-09-13T21:51:01.878Z,0.90
2018-09-13T21:53:30.852Z,1.00
2018-09-13T21:55:59.635Z,1.13
2018-09-13T21:58:28.829Z,1.10
2018-09-13T22:00:57.732Z,0.90
2018-09-13T22:03:26.918Z,1.00
2018-09-13T22:05:56.245Z,0.80
2018-09-13T22:08:25.516Z,0.93
2018-09-13T22:10:54.384Z,1.00
2018-09-13T22:13:23.724Z,0.70
2018-09-13T22:15:52.652Z,1.10
2018-09-13T22:18:21.468Z,0.80
2018-09-13T22:20:50.720Z,1.10
2018-09-13T22:23:19.634Z,0.97
2018-09-13T22:25:48.467Z,0.80
2018-09-13T22:28:17.775Z,1.27
2018-09-13T22:30:46.937Z,1.10
2018-09-13T22:33:15.841Z,0.80
2018-09-13T22:35:45.117Z,0.93
2018-09-13T22:38:17.531Z,1.20
2018-09-13T22:40:46.792Z,0.90
2018-09-13T22:43:15.815Z,1.10
2018-09-13T22:45:45.014Z,1.10
2018-09-13T22:48:14.291Z,0.80
2018-09-13T22:50:43.636Z,1.27
2018-09-13T22:53:12.544Z,0.90
2018-09-13T22:55:41.975Z,1.30
2018-09-13T22:58:10.791Z,1.40
2018-09-13T23:00:40.894Z,0.97
2018-09-13T23:03:10.228Z,1.10
2018-09-13T23:05:39.625Z,1.10
2018-09-13T23:08:08.504Z,1.30
2018-09-13T23:10:37.357Z,1.27
2018-09-13T23:13:06.144Z,1.30
2018-09-13T23:15:34.967Z,1.40
2018-09-13T23:18:03.966Z,1.30
2018-09-13T23:20:32.671Z,1.07
2018-09-13T23:23:01.505Z,1.10
2018-09-13T23:25:30.301Z,1.00
2018-09-13T23:27:59.541Z,0.90
2018-09-13T23:30:28.838Z,1.20
2018-09-13T23:32:57.745Z,1.40
2018-09-13T23:35:26.543Z,1.20
2018-09-13T23:37:55.731Z,1.20
2018-09-13T23:40:25.135Z,1.00
2018-09-13T23:42:53.903Z,1.83
2018-09-13T23:45:22.760Z,1.37
2018-09-13T23:47:51.988Z,1.20
2018-09-13T23:50:21.312Z,1.10
2018-09-13T23:52:50.243Z,1.20
2018-09-13T23:55:19.440Z,1.30
2018-09-13T23:57:48.301Z,1.10
